Kearns, Utah
Current Conditions -  °F | °C
As of 3:53 PM on Saturday 25 Oct 2014 (Local Time) from KSLC Reporting Station
Broken Clouds Broken Clouds  
Wind Chill: 25°   Ceiling: 22000
Heat Index: 25°   Visibility: 10mi
Dew Point: -1°   Wind: 23mph
Humidity: 19%   Direction: 170°S
Pressure: 29.94"   Gusts: 31mph
Location:  40.65°N, 111.96°W
Report Text: KSLC 252153Z 17020G27KT 10SM SCT170 BKN220 25/M01 A2994 RMK AO2 PK WND 15029/2118 SLP094 T02501006
Loading
Personal Weather Stations






























Interactive Weather Map
Tropical Storm Tracking
New forecast layout! Learn more

10-Day Weather Forecast

Advertisements
Track Severe Weather on mobile